Terminal Aerodrome Forecast
Issued by NWS

Home | Current Version | Previous Version | Text Only | Print | Product List | Glossary On
Versions: 1 2 3 4 5 6 7 8 9 10 11 12 13 14 15 16
352
FTUS43 KIND 220015 AAA
TAFLAF
TAF AMD
KLAF 220015Z 2200/2224 20005KT P6SM BKN250
     FM220100 19005KT P6SM -TSRA FEW050CB BKN250
     FM220200 19005KT P6SM FEW050 BKN250
     FM220700 20005KT P6SM VCTS FEW050CB BKN250
     FM221200 23005KT P6SM -SHRA VCTS OVC060CB
     FM221700 26009KT P6SM OVC035
      AMD LTD TO CLD VIS AND WIND 2201/2213=

USA.gov is the U.S. government's official web portal to all federal, state and local government web resources and services.